Home   Weather   Japan   Yokohama   Past weeks
Flag for Japan

Past Weather in Yokohama, Japan — Yesterday and Last 2 Weeks

Currently: 81 °F. Partly sunny. (Weather station: Tokyo International Airport, Japan). See more current weather

Past Weather in Yokohama — Graph

°F

Yokohama Temperature Yesterday

Maximum temperature yesterday: 82 °F (at 12:30 pm)
Minimum temperature yesterday: 64 °F (at 3:30 am)
Average temperature yesterday: 74 °F

High & Low Weather Summary for the Past Weeks

 TemperatureHumidityPressure
High88 °F (Jun 14, 12:30 pm)100% (Jun 16, 3:00 am)30.12 "Hg (Jun 16, 3:00 am)
Low64 °F (Jun 10, 4:30 am)46% (Jun 14, 12:30 pm)29.56 "Hg (Jun 16, 3:30 pm)
Average74 °F74%29.83 "Hg
* Reported Jun 5 1:00 pm — Jun 20 1:30 pm, Yokohama. Weather by CustomWeather, © 2024

Note: Actual official high and low records may vary slightly from our data, if they occured in-between our weather recording intervals... More about our weather records

Yokohama Weather History for the Previous 24 Hours

Scroll right to see more
 ConditionsComfort  
Time TempWeatherWind HumidityBarometerVisibility
1:30 pm
Thu, Jun 20
81 °FPartly sunny.17 mph66%29.83 "HgN/A
1:00 pm81 °FPartly sunny.17 mph66%29.83 "HgN/A
12:30 pm81 °FPartly sunny.15 mph66%29.83 "HgN/A
12:00 pm81 °FPartly sunny.16 mph66%29.83 "HgN/A
11:00 am81 °FPartly sunny.15 mph66%29.86 "HgN/A
10:30 am81 °FPartly sunny.13 mph66%29.86 "HgN/A
10:00 am79 °FPartly sunny.13 mph74%29.86 "HgN/A
9:30 am79 °FPartly sunny.13 mph70%29.86 "HgN/A
9:00 am79 °FPartly sunny.13 mph70%29.86 "HgN/A
8:30 am79 °FPartly sunny.14 mph70%29.86 "HgN/A
8:00 am79 °FPartly sunny.12 mph65%29.86 "HgN/A
7:30 am77 °FPartly sunny.7 mph65%29.86 "HgN/A
7:00 am75 °FPartly sunny.6 mph74%29.89 "HgN/A
6:30 am75 °FPartly sunny.6 mph74%29.86 "HgN/A
5:30 am72 °FPartly sunny.7 mph83%29.86 "HgN/A
5:00 am72 °FPartly sunny.8 mph88%29.86 "HgN/A
4:30 am72 °FPartly sunny.9 mph88%29.86 "HgN/A
4:00 am72 °FPassing clouds.9 mph88%29.86 "HgN/A
3:30 am72 °FPassing clouds.8 mph88%29.83 "HgN/A
3:00 am72 °FPassing clouds.7 mph88%29.83 "HgN/A
2:30 am73 °FPassing clouds.10 mph83%29.83 "HgN/A
2:00 am73 °FPassing clouds.9 mph83%29.83 "HgN/A
1:30 am72 °FPassing clouds.10 mph88%29.83 "HgN/A
1:00 am72 °FPassing clouds.9 mph88%29.83 "HgN/A
12:30 am73 °FPassing clouds.8 mph83%29.83 "HgN/A
12:00 am73 °FPassing clouds.8 mph83%29.83 "HgN/A
11:30 pm
Wed, Jun 19
73 °FClear.9 mph78%29.83 "Hg10 mi
11:00 pm73 °FClear.10 mph78%29.83 "Hg10 mi
10:00 pm75 °FClear.10 mph65%29.86 "Hg10 mi
9:30 pm73 °FPassing clouds.12 mph74%29.83 "HgN/A
9:00 pm75 °FPassing clouds.13 mph65%29.83 "HgN/A
8:30 pm77 °FPassing clouds.13 mph61%29.83 "HgN/A
8:00 pm77 °FPassing clouds.13 mph61%29.83 "HgN/A
7:30 pm77 °FPassing clouds.12 mph61%29.80 "HgN/A
7:00 pm77 °FPassing clouds.14 mph61%29.80 "HgN/A
6:30 pm79 °FPassing clouds.18 mph54%29.80 "HgN/A
6:00 pm79 °FPassing clouds.16 mph58%29.80 "HgN/A
5:30 pm81 °FPassing clouds.16 mph54%29.77 "HgN/A
5:00 pm82 °FScattered clouds.16 mph55%29.77 "HgN/A
4:30 pm82 °FPartly sunny.17 mph58%29.77 "HgN/A
4:00 pm82 °FPartly sunny.18 mph62%29.77 "HgN/A
3:30 pm82 °FPartly sunny.14 mph58%29.77 "HgN/A
3:00 pm82 °FScattered clouds.7 mph55%29.77 "HgN/A
Weather by CustomWeather, © 2024

See weather overview